createdAt,value
2023-03-23T15:58:14.059Z,99740.97
2023-03-23T16:00:41.429Z,99756.84
2023-03-23T16:03:12.323Z,99769.72
2023-03-23T16:05:39.278Z,99800.25
2023-03-23T16:08:06.420Z,99812.91
2023-03-23T16:10:33.019Z,99800.06
2023-03-23T16:12:59.647Z,99807.97
2023-03-23T16:15:26.621Z,99825.03
2023-03-23T16:17:53.361Z,99829.50
2023-03-23T16:20:21.994Z,99828.56
2023-03-23T16:22:49.405Z,99833.06
2023-03-23T16:25:16.795Z,99832.13
2023-03-23T16:27:43.920Z,99819.28
2023-03-23T16:30:23.405Z,99835.50
2023-03-23T16:32:50.070Z,99834.19
2023-03-23T16:35:19.139Z,99833.34
2023-03-23T16:37:52.079Z,99819.38
2023-03-23T16:40:36.508Z,99809.00
2023-03-23T16:43:08.298Z,99817.00
2023-03-23T16:45:37.549Z,99817.66
2023-03-23T16:48:05.436Z,99820.38
2023-03-23T16:50:32.670Z,99828.50
2023-03-23T16:52:59.324Z,99848.78
2023-03-23T16:55:27.308Z,99847.41
2023-03-23T16:58:05.456Z,99840.28
2023-03-23T17:00:36.168Z,99839.56
2023-03-23T17:03:03.113Z,99843.25
2023-03-23T17:05:29.905Z,99849.53
2023-03-23T17:07:56.896Z,99860.09
2023-03-23T17:10:27.048Z,99865.63
2023-03-23T17:12:54.916Z,99864.84
2023-03-23T17:15:21.670Z,99871.06
2023-03-23T17:17:48.333Z,99873.75
2023-03-23T17:20:15.243Z,99870.31
2023-03-23T17:22:42.064Z,99886.28
2023-03-23T17:25:10.064Z,99866.94
2023-03-23T17:27:37.266Z,99861.66
2023-03-23T17:30:08.673Z,99867.06
2023-03-23T17:32:36.580Z,99861.78
2023-03-23T17:35:05.449Z,99860.19
2023-03-23T17:37:33.761Z,99869.78
2023-03-23T17:40:00.444Z,99881.50
2023-03-23T17:42:28.001Z,99890.22
2023-03-23T17:44:54.797Z,99896.91
2023-03-23T17:47:21.446Z,99880.22
2023-03-23T17:49:48.115Z,99867.94
2023-03-23T17:52:14.734Z,99857.34
2023-03-23T17:54:41.511Z,99858.91
2023-03-23T17:57:08.340Z,99863.63
2023-03-23T17:59:35.026Z,99871.88
2023-03-23T18:02:01.803Z,99873.66
2023-03-23T18:04:28.538Z,99864.19
2023-03-23T18:06:56.447Z,99852.09
2023-03-23T18:09:23.945Z,99850.38
2023-03-23T18:11:51.048Z,99842.44
2023-03-23T18:14:17.926Z,99853.94
2023-03-23T18:16:44.914Z,99842.75
2023-03-23T18:19:11.786Z,99848.94
2023-03-23T18:21:39.008Z,99852.44
2023-03-23T18:24:06.213Z,99854.34
2023-03-23T18:26:32.841Z,99857.97
2023-03-23T18:28:59.587Z,99856.94
2023-03-23T18:31:26.251Z,99873.75
2023-03-23T18:33:54.949Z,99880.25
2023-03-23T18:36:24.005Z,99868.97
2023-03-23T18:38:51.185Z,99876.13
2023-03-23T18:41:18.518Z,99887.56
2023-03-23T18:43:46.134Z,99885.72
2023-03-23T18:46:13.012Z,99896.34
2023-03-23T18:48:39.673Z,99897.34
2023-03-23T18:51:07.159Z,99899.16
2023-03-23T18:53:33.856Z,99899.19
2023-03-23T18:56:05.913Z,99904.63
2023-03-23T18:58:32.805Z,99909.97
2023-03-23T19:01:03.677Z,99911.06
2023-03-23T19:03:31.062Z,99910.13
2023-03-23T19:05:59.702Z,99906.75
2023-03-23T19:08:27.923Z,99899.94
2023-03-23T19:11:01.096Z,99898.53
2023-03-23T19:13:34.115Z,99898.00
2023-03-23T19:16:01.022Z,99900.88
2023-03-23T19:18:28.166Z,99900.16
2023-03-23T19:21:13.492Z,99897.84
2023-03-23T19:23:41.901Z,99919.19
2023-03-23T19:26:23.867Z,99911.53
2023-03-23T19:31:23.618Z,99919.81
2023-03-23T19:33:52.905Z,99911.19
2023-03-23T19:50:56.282Z,99923.63
2023-03-23T19:53:23.430Z,99925.41
2023-03-23T19:55:50.378Z,99922.81
2023-03-23T19:58:17.362Z,99922.00
2023-03-23T20:00:44.752Z,99920.31
2023-03-23T20:03:12.260Z,99924.84
2023-03-23T20:05:40.654Z,99926.69
2023-03-23T20:08:09.156Z,99929.41
2023-03-23T20:10:43.228Z,99926.03
2023-03-23T20:13:11.816Z,99925.19
2023-03-23T20:21:56.338Z,99919.31
2023-03-23T20:24:23.107Z,99916.63
2023-03-23T20:26:49.778Z,99907.13
2023-03-23T20:29:16.554Z,99914.94
2023-03-23T20:31:43.742Z,99912.31
2023-03-23T20:34:13.012Z,99921.22
2023-03-23T20:36:42.319Z,99923.84
2023-03-23T20:39:12.036Z,99917.72
2023-03-23T20:41:40.351Z,99923.06
2023-03-23T20:44:09.294Z,99913.66
2023-03-23T20:46:36.608Z,99913.78
2023-03-23T20:49:03.365Z,99926.88
2023-03-23T20:51:30.317Z,99922.69
2023-03-23T20:53:57.119Z,99933.31
2023-03-23T20:56:25.366Z,99927.19
2023-03-23T20:58:52.118Z,99922.78
2023-03-23T21:01:18.818Z,99928.09
2023-03-23T21:03:45.686Z,99923.66
2023-03-23T21:06:12.383Z,99920.97
2023-03-23T21:08:40.894Z,99925.38
2023-03-23T21:14:03.239Z,99920.97
2023-03-23T21:16:29.901Z,99913.06
2023-03-23T21:18:56.729Z,99905.13
2023-03-23T21:21:27.260Z,99899.00
2023-03-23T21:23:55.687Z,99897.16
2023-03-23T21:26:24.356Z,99891.88
2023-03-23T21:28:53.840Z,99889.16
2023-03-23T21:31:23.390Z,99890.19
2023-03-23T21:33:50.365Z,99891.16
2023-03-23T21:36:17.242Z,99899.13
2023-03-23T21:38:44.758Z,99901.75
2023-03-23T21:41:14.601Z,99902.63
2023-03-23T21:43:41.601Z,99902.59
2023-03-23T21:46:09.390Z,99897.38
2023-03-23T21:48:38.660Z,99893.72
2023-03-23T21:51:10.127Z,99881.56
2023-03-23T21:53:37.205Z,99873.63
2023-03-23T21:56:06.112Z,99876.19
2023-03-23T21:58:33.430Z,99876.25
2023-03-23T22:01:01.205Z,99875.41
2023-03-23T22:03:32.168Z,99878.06
2023-03-23T22:06:05.326Z,99879.78
2023-03-23T22:08:32.217Z,99881.50
2023-03-23T22:11:01.863Z,99881.50
2023-03-23T22:13:30.697Z,99885.84
2023-03-23T22:15:58.913Z,99878.94
2023-03-23T22:18:29.966Z,99877.75
2023-03-23T22:21:01.029Z,99885.78
2023-03-23T22:23:27.719Z,99879.88
2023-03-23T22:25:55.900Z,99882.66
2023-03-23T22:28:24.797Z,99883.34
2023-03-23T22:30:51.410Z,99880.72
2023-03-23T22:33:18.129Z,99874.13
2023-03-23T22:35:46.187Z,99875.09
2023-03-23T22:38:14.862Z,99867.22
2023-03-23T22:40:42.823Z,99868.91
2023-03-23T22:43:10.103Z,99866.28
2023-03-23T22:45:36.892Z,99859.22
2023-03-23T22:48:05.693Z,99856.56
2023-03-23T22:50:32.503Z,99854.78
2023-03-23T22:52:59.422Z,99865.13
2023-03-23T22:55:27.108Z,99853.91
2023-03-23T22:57:53.830Z,99847.78
2023-03-23T23:00:21.063Z,99845.97
2023-03-23T23:02:49.064Z,99852.16
2023-03-23T23:05:16.170Z,99845.22
2023-03-23T23:07:42.851Z,99850.44
2023-03-23T23:10:09.730Z,99842.50
2023-03-23T23:12:36.982Z,99840.59
2023-03-23T23:15:06.072Z,99845.72
2023-03-23T23:17:34.788Z,99849.81
2023-03-23T23:20:05.665Z,99854.09
2023-03-23T23:22:35.634Z,99854.88
2023-03-23T23:25:05.339Z,99842.50
2023-03-23T23:27:32.449Z,99847.63
2023-03-23T23:30:00.226Z,99840.41
2023-03-23T23:32:31.847Z,99834.31
2023-03-23T23:34:58.673Z,99827.25
2023-03-23T23:37:25.271Z,99828.97
2023-03-23T23:39:54.128Z,99826.16
2023-03-23T23:42:20.731Z,99824.38
2023-03-23T23:44:47.507Z,99817.19
2023-03-23T23:47:14.288Z,99820.72
2023-03-23T23:49:41.250Z,99814.56
2023-03-23T23:52:08.713Z,99812.78
2023-03-23T23:54:37.408Z,99819.63
2023-03-23T23:57:04.987Z,99813.47
2023-03-23T23:59:31.772Z,99801.03
